createdAt,value
2022-08-21T00:00:02.215Z,40.42
2022-08-21T00:01:20.206Z,47.45
2022-08-21T00:02:25.996Z,41.38
2022-08-21T00:03:30.559Z,36.08
2022-08-21T00:04:34.157Z,40.33
2022-08-21T00:07:08.674Z,31.80
2022-08-21T00:08:12.058Z,32.25
2022-08-21T00:09:16.912Z,35.63
2022-08-21T00:10:20.847Z,35.17
2022-08-21T00:11:25.383Z,37.83
2022-08-21T00:12:28.920Z,35.22
2022-08-21T00:13:36.265Z,37.80
2022-08-21T00:14:39.685Z,42.08
2022-08-21T00:15:45.989Z,32.05
2022-08-21T00:16:49.699Z,35.25
2022-08-21T00:17:54.344Z,30.77
2022-08-21T00:18:57.816Z,40.72
2022-08-21T00:20:02.127Z,34.67
2022-08-21T00:21:05.796Z,33.88
2022-08-21T00:22:10.463Z,33.35
2022-08-21T00:23:14.609Z,36.45
2022-08-21T00:24:18.848Z,43.42
2022-08-21T00:26:46.474Z,43.15
2022-08-21T00:27:50.163Z,34.08
2022-08-21T00:28:54.534Z,28.95
2022-08-21T00:29:58.693Z,30.13
2022-08-21T00:31:05.114Z,25.45
2022-08-21T00:32:08.333Z,34.85
2022-08-21T00:33:18.595Z,38.53
2022-08-21T00:34:22.973Z,21.70
2022-08-21T00:35:28.806Z,25.10
2022-08-21T00:36:33.232Z,36.10
2022-08-21T00:37:36.444Z,44.95
2022-08-21T00:38:40.846Z,33.88
2022-08-21T00:39:44.285Z,34.72
2022-08-21T00:40:51.507Z,37.22
2022-08-21T00:41:54.785Z,33.40
2022-08-21T00:42:59.347Z,35.88
2022-08-21T00:44:02.802Z,32.35
2022-08-21T00:45:08.486Z,30.23
2022-08-21T00:46:14.158Z,40.72
2022-08-21T00:47:18.141Z,43.65
2022-08-21T00:48:22.726Z,45.45
2022-08-21T00:49:26.085Z,33.90
2022-08-21T00:50:33.113Z,39.72
2022-08-21T00:51:39.672Z,34.95
2022-08-21T00:52:45.041Z,34.90
2022-08-21T00:53:53.407Z,38.80
2022-08-21T00:55:00.418Z,34.40
2022-08-21T00:56:07.254Z,39.15
2022-08-21T00:57:18.511Z,31.30
2022-08-21T00:58:22.274Z,34.70
2022-08-21T00:59:27.101Z,47.55
2022-08-21T01:00:34.779Z,42.47
2022-08-21T01:01:40.635Z,37.47
2022-08-21T01:02:44.021Z,40.33
2022-08-21T01:03:49.121Z,36.85
2022-08-21T01:04:53.672Z,32.80
2022-08-21T01:05:58.304Z,32.05
2022-08-21T01:07:01.884Z,32.38
2022-08-21T01:08:06.660Z,26.88
2022-08-21T01:09:10.322Z,33.08
2022-08-21T01:10:23.973Z,29.40
2022-08-21T01:11:32.854Z,35.13
2022-08-21T01:12:37.332Z,27.77
2022-08-21T01:13:47.061Z,31.40
2022-08-21T01:14:51.430Z,23.40
2022-08-21T01:15:56.714Z,28.73
2022-08-21T01:17:04.352Z,35.30
2022-08-21T01:18:11.217Z,30.02
2022-08-21T01:19:16.373Z,31.83
2022-08-21T01:20:19.574Z,35.35
2022-08-21T01:21:28.272Z,38.58
2022-08-21T01:22:32.044Z,36.15
2022-08-21T01:23:37.155Z,32.65
2022-08-21T01:24:40.641Z,34.53
2022-08-21T01:25:44.996Z,35.75
2022-08-21T01:26:48.584Z,30.75
2022-08-21T01:27:52.874Z,32.47
2022-08-21T01:28:59.033Z,30.30
2022-08-21T01:30:07.492Z,33.58
2022-08-21T01:31:12.531Z,27.73
2022-08-21T01:32:19.989Z,31.23
2022-08-21T01:33:24.373Z,34.88
2022-08-21T01:34:28.841Z,37.30
2022-08-21T01:35:32.232Z,28.40
2022-08-21T01:36:38.103Z,33.70
2022-08-21T01:37:41.576Z,38.42
2022-08-21T01:38:45.988Z,34.70
2022-08-21T01:39:50.253Z,31.42
2022-08-21T01:40:54.612Z,35.15
2022-08-21T01:42:01.079Z,33.65
2022-08-21T01:43:05.709Z,29.27
2022-08-21T01:44:09.205Z,34.83
2022-08-21T01:45:14.791Z,24.42
2022-08-21T01:46:18.303Z,27.73
2022-08-21T01:47:22.851Z,29.75
2022-08-21T01:48:26.134Z,27.02
2022-08-21T01:49:30.919Z,25.13
2022-08-21T01:50:34.350Z,27.63
2022-08-21T01:51:40.175Z,33.00
2022-08-21T01:52:43.569Z,28.77
2022-08-21T01:53:48.172Z,37.50
2022-08-21T01:54:55.456Z,32.00
2022-08-21T01:56:00.161Z,27.20
2022-08-21T01:57:05.659Z,31.23
2022-08-21T01:58:08.954Z,32.63
2022-08-21T01:59:13.531Z,33.30
2022-08-21T02:00:19.053Z,33.55
2022-08-21T02:01:23.460Z,29.15
2022-08-21T02:02:29.711Z,30.40
2022-08-21T02:03:36.144Z,28.73
2022-08-21T02:04:39.728Z,33.10
2022-08-21T02:05:45.260Z,30.30
2022-08-21T02:06:50.212Z,30.63
2022-08-21T02:07:55.966Z,35.75
2022-08-21T02:08:59.271Z,25.33
2022-08-21T02:10:03.578Z,28.25
2022-08-21T02:11:07.082Z,30.85
2022-08-21T02:12:12.472Z,32.58
2022-08-21T02:13:15.623Z,29.02
2022-08-21T02:14:32.080Z,25.80
2022-08-21T02:15:37.770Z,23.63
2022-08-21T02:16:41.625Z,28.10
2022-08-21T02:17:48.335Z,34.10
2022-08-21T02:18:51.712Z,29.25
2022-08-21T02:19:56.815Z,26.10
2022-08-21T02:21:00.042Z,30.33
2022-08-21T02:22:06.221Z,25.63
2022-08-21T02:23:12.016Z,23.90
2022-08-21T02:24:16.383Z,27.33
2022-08-21T02:25:20.774Z,30.75
2022-08-21T02:26:25.365Z,26.00
2022-08-21T02:27:49.873Z,24.42
2022-08-21T02:28:55.052Z,24.83
2022-08-21T02:29:59.093Z,24.48
2022-08-21T02:31:04.097Z,28.40
2022-08-21T02:32:07.715Z,25.85
2022-08-21T02:33:13.824Z,29.60
2022-08-21T02:34:17.237Z,36.10
2022-08-21T02:35:22.482Z,31.55
2022-08-21T02:36:25.718Z,28.80
2022-08-21T02:37:31.655Z,25.23
2022-08-21T02:38:39.125Z,29.05
2022-08-21T02:39:43.563Z,25.83
2022-08-21T02:40:51.134Z,29.02
2022-08-21T02:41:55.554Z,25.92
2022-08-21T02:42:59.349Z,24.02
2022-08-21T02:44:03.816Z,29.58
2022-08-21T02:45:08.339Z,29.67
2022-08-21T02:46:14.363Z,24.80
2022-08-21T02:47:17.707Z,25.25
2022-08-21T02:48:24.363Z,22.63
2022-08-21T02:49:28.717Z,28.15
2022-08-21T02:50:34.385Z,26.38
2022-08-21T02:51:38.856Z,34.25
2022-08-21T02:52:43.472Z,36.35
2022-08-21T02:53:49.234Z,32.58
2022-08-21T02:54:52.382Z,39.50
2022-08-21T02:55:58.523Z,34.92
2022-08-21T02:57:01.658Z,43.50
2022-08-21T02:58:07.249Z,43.47
2022-08-21T02:59:10.575Z,37.53
2022-08-21T03:00:15.368Z,41.22
2022-08-21T03:01:18.861Z,40.45
2022-08-21T03:02:23.393Z,42.05
2022-08-21T03:03:30.467Z,45.88
2022-08-21T03:04:34.782Z,41.78
2022-08-21T03:05:38.822Z,39.50
2022-08-21T03:06:43.280Z,42.20
2022-08-21T03:07:48.802Z,40.60
2022-08-21T03:08:53.304Z,36.30
2022-08-21T03:09:56.650Z,41.15
2022-08-21T03:11:02.143Z,37.70
2022-08-21T03:12:06.187Z,42.97
2022-08-21T03:13:11.018Z,39.33
2022-08-21T03:14:14.473Z,44.03
2022-08-21T03:15:24.781Z,43.47
2022-08-21T03:16:30.932Z,41.10
2022-08-21T03:17:37.643Z,45.78
2022-08-21T03:18:41.321Z,39.65
2022-08-21T03:19:45.824Z,40.70
2022-08-21T03:20:49.875Z,45.42
2022-08-21T03:21:54.205Z,35.58
2022-08-21T03:22:59.366Z,39.03
2022-08-21T03:24:04.475Z,39.35
2022-08-21T03:25:10.880Z,42.13
2022-08-21T03:26:16.716Z,43.60
2022-08-21T03:27:19.954Z,36.17
2022-08-21T03:28:26.988Z,37.08
2022-08-21T03:29:30.226Z,49.07
2022-08-21T03:30:34.534Z,48.78
2022-08-21T03:31:38.856Z,46.67
2022-08-21T03:32:42.352Z,36.50
2022-08-21T03:33:46.791Z,39.30
2022-08-21T03:34:50.124Z,44.97
2022-08-21T03:36:01.812Z,43.42
2022-08-21T03:37:07.194Z,41.70
2022-08-21T03:38:14.147Z,38.33
2022-08-21T03:39:18.844Z,38.42
2022-08-21T03:40:25.774Z,33.03
2022-08-21T03:41:30.039Z,32.25
2022-08-21T03:42:33.601Z,35.10
2022-08-21T03:43:39.747Z,36.88
2022-08-21T03:44:42.952Z,40.30
2022-08-21T03:45:47.542Z,39.05
2022-08-21T03:46:50.686Z,44.30
2022-08-21T03:47:56.984Z,45.85
2022-08-21T03:49:01.765Z,40.20
2022-08-21T03:50:05.894Z,37.47
2022-08-21T03:51:10.792Z,58.50
2022-08-21T03:52:14.463Z,66.40
2022-08-21T03:53:20.543Z,44.42
2022-08-21T03:54:24.093Z,42.03
2022-08-21T03:55:29.415Z,81.55
2022-08-21T03:56:33.002Z,42.73
2022-08-21T03:57:37.907Z,50.47
2022-08-21T03:58:41.422Z,37.13
2022-08-21T03:59:46.132Z,37.47
2022-08-21T04:04:01.279Z,38.80
2022-08-21T04:05:05.657Z,38.83
2022-08-21T04:06:11.651Z,36.43
2022-08-21T04:07:15.143Z,36.47
2022-08-21T04:08:21.090Z,34.50
2022-08-21T04:09:25.228Z,38.33
2022-08-21T04:10:31.244Z,54.73
2022-08-21T04:11:35.543Z,36.00
2022-08-21T04:12:39.021Z,31.97
2022-08-21T04:13:44.857Z,33.83
2022-08-21T04:14:48.667Z,26.87
2022-08-21T04:15:53.503Z,31.43
2022-08-21T04:16:56.809Z,30.50
2022-08-21T04:18:01.412Z,32.47
2022-08-21T04:19:04.919Z,36.13
2022-08-21T04:20:10.339Z,30.20
2022-08-21T04:21:14.793Z,35.83
2022-08-21T04:22:18.582Z,33.03
2022-08-21T04:23:25.128Z,31.85
2022-08-21T04:24:29.921Z,35.97
2022-08-21T04:25:34.537Z,34.17
2022-08-21T04:26:39.021Z,34.53
2022-08-21T04:27:43.481Z,37.33
2022-08-21T04:28:47.878Z,29.73
2022-08-21T04:29:51.082Z,31.07
2022-08-21T04:30:55.237Z,34.30
2022-08-21T04:31:58.646Z,33.43
2022-08-21T04:33:03.035Z,30.50
2022-08-21T04:34:06.514Z,34.47
2022-08-21T04:35:12.761Z,33.13
2022-08-21T04:36:17.076Z,36.50
2022-08-21T04:37:26.256Z,35.67
2022-08-21T04:38:36.687Z,37.63
2022-08-21T04:39:41.232Z,37.53
2022-08-21T04:40:45.870Z,32.03
2022-08-21T04:41:49.329Z,37.80
2022-08-21T04:42:55.696Z,32.80
2022-08-21T04:43:59.361Z,35.57
2022-08-21T04:45:04.092Z,32.27
2022-08-21T04:46:07.945Z,28.57
2022-08-21T04:47:18.904Z,37.10
2022-08-21T04:48:25.001Z,32.47
2022-08-21T04:49:29.692Z,29.63
2022-08-21T04:50:39.981Z,25.97
2022-08-21T04:51:44.551Z,33.17
2022-08-21T04:52:48.647Z,29.80
2022-08-21T04:53:57.901Z,28.20
2022-08-21T04:55:02.813Z,31.50
2022-08-21T04:56:10.692Z,26.13
2022-08-21T04:57:15.672Z,34.13
2022-08-21T04:58:22.156Z,29.40
2022-08-21T04:59:29.764Z,29.23
2022-08-21T05:00:34.313Z,37.27
2022-08-21T05:01:39.039Z,28.33
2022-08-21T05:02:44.264Z,29.43
2022-08-21T05:03:49.214Z,25.30
2022-08-21T05:04:55.143Z,29.33
2022-08-21T05:05:58.915Z,28.10
2022-08-21T05:07:07.284Z,25.17
2022-08-21T05:08:14.501Z,29.03
2022-08-21T05:09:21.404Z,28.37
2022-08-21T05:10:24.919Z,30.13
2022-08-21T05:11:29.991Z,27.90
2022-08-21T05:12:34.640Z,28.80
2022-08-21T05:13:41.893Z,32.57
2022-08-21T05:14:45.443Z,26.80
2022-08-21T05:15:49.885Z,27.23
2022-08-21T05:16:53.155Z,23.43
2022-08-21T05:18:00.739Z,26.27
2022-08-21T05:19:05.480Z,27.37
2022-08-21T05:20:11.184Z,26.27
2022-08-21T05:21:14.892Z,29.87
2022-08-21T05:22:22.690Z,24.53
2022-08-21T05:23:26.403Z,22.87
2022-08-21T05:24:32.502Z,23.63
2022-08-21T05:25:36.159Z,27.50
2022-08-21T05:26:45.474Z,24.93
2022-08-21T05:27:52.205Z,22.60
2022-08-21T05:28:57.332Z,24.97
2022-08-21T05:30:00.956Z,25.77
2022-08-21T05:31:05.915Z,23.20
2022-08-21T05:32:11.363Z,26.17
2022-08-21T05:33:16.067Z,25.50
2022-08-21T05:34:20.972Z,26.07
2022-08-21T05:35:26.236Z,28.57
2022-08-21T05:36:29.722Z,23.60
2022-08-21T05:37:34.793Z,21.77
2022-08-21T05:38:38.352Z,21.97
2022-08-21T05:40:21.167Z,23.73
2022-08-21T05:41:08.809Z,25.20
2022-08-21T05:42:13.522Z,24.37
2022-08-21T05:43:18.241Z,20.87
2022-08-21T05:44:21.714Z,28.53
2022-08-21T05:45:41.541Z,20.33
2022-08-21T05:46:47.055Z,23.90
2022-08-21T05:47:50.542Z,22.43
2022-08-21T05:49:20.025Z,23.50
2022-08-21T05:50:23.882Z,29.57
2022-08-21T05:51:34.551Z,29.07
2022-08-21T05:52:38.202Z,24.77
2022-08-21T05:53:43.715Z,22.13
2022-08-21T05:54:48.783Z,22.17
2022-08-21T05:56:02.504Z,21.67
2022-08-21T05:57:15.477Z,23.30
2022-08-21T05:58:20.838Z,20.03
2022-08-21T05:59:25.806Z,25.13
2022-08-21T06:00:29.118Z,24.73
2022-08-21T06:01:33.933Z,22.90
2022-08-21T06:02:37.340Z,25.63
2022-08-21T06:03:43.119Z,24.10
2022-08-21T06:04:46.922Z,24.90
2022-08-21T06:05:51.124Z,23.17
2022-08-21T06:06:54.404Z,19.83
2022-08-21T06:07:59.077Z,30.10
2022-08-21T06:09:02.980Z,22.30
2022-08-21T06:10:09.969Z,23.40
2022-08-21T06:11:13.288Z,24.37
2022-08-21T06:12:17.965Z,22.43
2022-08-21T06:13:22.042Z,24.00
2022-08-21T06:14:26.631Z,21.50
2022-08-21T06:15:33.123Z,25.00
2022-08-21T06:16:37.792Z,25.03
2022-08-21T06:17:41.255Z,24.33
2022-08-21T06:18:46.949Z,24.30
2022-08-21T06:19:53.073Z,20.80
2022-08-21T06:20:57.876Z,21.30
2022-08-21T06:22:04.595Z,26.00
2022-08-21T06:23:09.316Z,22.57
2022-08-21T06:24:12.980Z,22.90
2022-08-21T06:25:19.669Z,23.97
2022-08-21T06:26:23.474Z,21.47
2022-08-21T06:27:28.034Z,19.57
2022-08-21T06:28:31.555Z,25.73
2022-08-21T06:29:44.284Z,22.93
2022-08-21T06:30:47.868Z,23.97
2022-08-21T06:31:54.088Z,23.00
2022-08-21T06:32:57.964Z,19.33
2022-08-21T06:34:02.362Z,21.83
2022-08-21T06:35:06.713Z,23.87
2022-08-21T06:36:11.201Z,27.53
2022-08-21T06:37:14.472Z,25.03
2022-08-21T06:38:19.371Z,25.53
2022-08-21T06:39:30.585Z,31.40
2022-08-21T06:40:43.663Z,35.03
2022-08-21T06:41:50.163Z,30.33
2022-08-21T06:42:54.893Z,27.83
2022-08-21T06:43:59.950Z,29.03
2022-08-21T06:45:03.430Z,24.50
2022-08-21T06:46:08.283Z,26.73
2022-08-21T06:47:12.240Z,26.13
2022-08-21T06:48:19.317Z,27.80
2022-08-21T06:49:22.912Z,30.17
2022-08-21T06:50:27.512Z,27.80
2022-08-21T06:51:30.758Z,29.87
2022-08-21T06:52:35.112Z,27.90
2022-08-21T06:53:39.591Z,34.47
2022-08-21T06:54:42.915Z,27.47
2022-08-21T06:55:49.182Z,27.83
2022-08-21T06:56:52.751Z,29.83
2022-08-21T06:57:57.353Z,37.70
2022-08-21T06:59:02.218Z,40.97
2022-08-21T07:00:06.179Z,35.80
2022-08-21T07:01:10.403Z,50.10
2022-08-21T07:02:13.801Z,43.53
2022-08-21T07:03:25.750Z,38.70
2022-08-21T07:04:28.921Z,36.13
2022-08-21T07:05:33.551Z,30.80
2022-08-21T07:06:36.684Z,34.30
2022-08-21T07:07:40.934Z,32.13
2022-08-21T07:08:45.408Z,28.83
2022-08-21T07:09:48.532Z,25.77
2022-08-21T07:10:55.160Z,29.53
2022-08-21T07:11:58.442Z,28.67
2022-08-21T07:13:03.077Z,32.23
2022-08-21T07:14:06.671Z,32.07
2022-08-21T07:15:12.109Z,31.17
2022-08-21T07:16:16.235Z,29.17
2022-08-21T07:17:19.512Z,32.50
2022-08-21T07:18:23.622Z,29.03
2022-08-21T07:19:26.770Z,26.77
2022-08-21T07:20:31.439Z,28.37
2022-08-21T07:21:35.560Z,30.23
2022-08-21T07:22:39.995Z,33.33
2022-08-21T07:23:45.684Z,30.63
2022-08-21T07:24:48.811Z,29.97
2022-08-21T07:25:54.444Z,30.70
2022-08-21T07:26:57.589Z,32.00
2022-08-21T07:28:01.841Z,30.13
2022-08-21T07:29:05.509Z,29.93
2022-08-21T07:30:10.583Z,30.90
2022-08-21T07:31:15.754Z,28.47
2022-08-21T07:32:21.457Z,29.03
2022-08-21T07:33:25.873Z,31.20
2022-08-21T07:34:30.230Z,26.20
2022-08-21T07:35:34.530Z,31.10
2022-08-21T07:36:38.868Z,22.57
2022-08-21T07:37:42.443Z,29.73
2022-08-21T07:38:46.934Z,26.33
2022-08-21T07:39:50.284Z,28.30
2022-08-21T07:40:57.751Z,22.23
2022-08-21T07:42:03.920Z,15.53
2022-08-21T07:43:10.678Z,11.03
2022-08-21T07:44:13.782Z,9.43
2022-08-21T07:45:18.191Z,9.27
2022-08-21T07:46:21.511Z,8.83
2022-08-21T07:47:29.352Z,8.50
2022-08-21T07:48:46.131Z,10.20
2022-08-21T07:49:49.181Z,6.40
2022-08-21T07:50:53.623Z,8.23
2022-08-21T07:51:57.079Z,10.50
2022-08-21T07:53:01.347Z,6.97
2022-08-21T07:54:04.709Z,6.60
2022-08-21T07:55:10.278Z,6.13
2022-08-21T07:56:14.794Z,5.67
2022-08-21T07:57:18.985Z,6.53
2022-08-21T07:58:26.000Z,5.27
2022-08-21T07:59:29.520Z,4.10
2022-08-21T08:00:34.112Z,3.70
2022-08-21T08:01:37.335Z,6.80
2022-08-21T08:02:42.272Z,6.57
2022-08-21T08:03:46.323Z,3.50
2022-08-21T08:04:51.211Z,6.57
2022-08-21T08:05:54.518Z,3.43
2022-08-21T08:06:59.208Z,4.90
2022-08-21T08:08:02.476Z,5.03
2022-08-21T08:09:06.610Z,7.03
2022-08-21T08:10:11.632Z,3.07
2022-08-21T08:11:17.563Z,4.40
2022-08-21T08:12:21.463Z,3.10
2022-08-21T08:13:25.822Z,5.13
2022-08-21T08:14:31.488Z,3.40
2022-08-21T08:15:37.724Z,3.33
2022-08-21T08:16:40.813Z,2.60
2022-08-21T08:17:45.165Z,2.90
2022-08-21T08:18:49.290Z,3.37
2022-08-21T08:19:52.572Z,4.43
2022-08-21T08:20:56.680Z,6.77
2022-08-21T08:21:59.773Z,4.17
2022-08-21T08:23:04.202Z,3.40
2022-08-21T08:24:19.562Z,4.37
2022-08-21T08:25:25.179Z,8.47
2022-08-21T08:26:29.734Z,2.43
2022-08-21T08:27:33.989Z,2.63
2022-08-21T08:28:37.069Z,4.30
2022-08-21T08:29:41.272Z,4.83
2022-08-21T08:30:44.306Z,3.57
2022-08-21T08:31:48.357Z,3.70
2022-08-21T08:32:51.543Z,1.90
2022-08-21T08:33:55.656Z,3.63
2022-08-21T08:34:58.733Z,2.87
2022-08-21T08:36:07.992Z,3.27
2022-08-21T08:37:12.192Z,3.67
2022-08-21T08:38:20.919Z,6.07
2022-08-21T08:39:29.676Z,4.40
2022-08-21T08:40:38.764Z,2.93
2022-08-21T08:41:48.423Z,2.60
2022-08-21T08:43:02.372Z,4.53
2022-08-21T08:44:08.453Z,3.30
2022-08-21T08:45:14.916Z,3.83
2022-08-21T08:46:21.224Z,16.80
2022-08-21T08:47:27.590Z,7.03
2022-08-21T08:48:40.919Z,7.10
2022-08-21T08:49:52.664Z,7.10
2022-08-21T08:50:58.354Z,4.07
2022-08-21T08:52:05.202Z,4.13
2022-08-21T08:53:13.611Z,4.27
2022-08-21T08:56:09.688Z,4.00
2022-08-21T08:57:22.512Z,4.40
2022-08-21T08:58:31.476Z,3.03
2022-08-21T08:59:41.105Z,2.40
2022-08-21T09:00:49.444Z,6.97
2022-08-21T09:01:53.718Z,2.63
2022-08-21T09:03:01.096Z,3.43
2022-08-21T09:04:05.891Z,5.13
2022-08-21T09:05:09.833Z,5.00
2022-08-21T09:06:25.559Z,2.80
2022-08-21T09:07:40.272Z,7.23
2022-08-21T09:08:50.822Z,10.43
2022-08-21T09:10:06.515Z,10.43
2022-08-21T09:11:15.077Z,4.37
2022-08-21T09:12:34.201Z,9.27
2022-08-21T09:13:52.668Z,2.50
2022-08-21T09:15:05.690Z,4.53
2022-08-21T09:16:15.464Z,1.90
2022-08-21T09:17:32.560Z,2.40
2022-08-21T09:18:45.522Z,3.37
2022-08-21T09:19:59.363Z,7.00
2022-08-21T09:21:12.252Z,2.20
2022-08-21T09:22:21.034Z,3.70
2022-08-21T09:23:33.879Z,2.70
2022-08-21T09:24:46.935Z,3.37
2022-08-21T09:25:58.875Z,2.60
2022-08-21T09:27:09.489Z,2.80
2022-08-21T09:28:15.925Z,2.10
2022-08-21T09:29:25.562Z,5.17
2022-08-21T09:30:34.824Z,3.03
2022-08-21T09:31:38.729Z,3.00
2022-08-21T09:32:43.181Z,2.33
2022-08-21T09:33:46.213Z,3.83
2022-08-21T09:35:02.255Z,6.30
2022-08-21T09:36:07.023Z,2.00
2022-08-21T09:37:19.063Z,1.93
2022-08-21T09:38:29.891Z,2.03
2022-08-21T09:39:40.251Z,2.83
2022-08-21T09:40:48.183Z,2.20
2022-08-21T09:41:58.081Z,2.27
2022-08-21T09:43:04.652Z,3.27
2022-08-21T09:44:11.180Z,30.90
2022-08-21T09:45:18.403Z,18.90
2022-08-21T09:46:25.201Z,3.90
2022-08-21T09:47:28.660Z,1.70
2022-08-21T09:48:40.579Z,3.73
2022-08-21T09:49:44.801Z,4.37
2022-08-21T09:50:50.441Z,3.00
2022-08-21T09:51:55.311Z,1.60
2022-08-21T09:53:01.306Z,3.63
2022-08-21T09:54:15.622Z,1.70
2022-08-21T09:55:41.804Z,2.77
2022-08-21T09:57:13.153Z,1.73
2022-08-21T09:58:17.681Z,3.40
2022-08-21T09:59:30.841Z,5.60
2022-08-21T10:00:38.175Z,5.57
2022-08-21T10:01:45.494Z,5.63
2022-08-21T10:02:49.681Z,8.40
2022-08-21T10:04:04.691Z,6.23
2022-08-21T10:05:12.249Z,2.27
2022-08-21T10:06:24.592Z,2.30
2022-08-21T10:07:30.764Z,3.53
2022-08-21T10:08:35.990Z,6.83
2022-08-21T10:09:40.190Z,1.57
2022-08-21T10:10:43.300Z,3.50
2022-08-21T10:11:54.137Z,1.67
2022-08-21T10:13:02.325Z,1.93
2022-08-21T10:14:15.520Z,1.67
2022-08-21T10:15:25.943Z,2.40
2022-08-21T10:16:34.348Z,2.43
2022-08-21T10:17:43.541Z,1.20
2022-08-21T10:18:54.390Z,1.00
2022-08-21T10:20:02.585Z,1.40
2022-08-21T10:21:12.453Z,2.17
2022-08-21T10:22:25.383Z,1.53
2022-08-21T10:23:41.020Z,2.97
2022-08-21T10:24:52.460Z,1.47
2022-08-21T10:26:13.333Z,1.20
2022-08-21T10:27:25.332Z,1.30
2022-08-21T10:28:34.601Z,2.00
2022-08-21T10:29:50.540Z,1.00
2022-08-21T10:30:59.476Z,1.33
2022-08-21T10:32:15.682Z,2.60
2022-08-21T10:33:38.662Z,1.40
2022-08-21T10:34:49.904Z,1.30
2022-08-21T10:35:59.573Z,2.90
2022-08-21T10:37:12.790Z,1.47
2022-08-21T10:39:02.697Z,2.00
2022-08-21T10:40:19.843Z,1.10
2022-08-21T10:41:30.749Z,1.90
2022-08-21T10:42:39.582Z,1.37
2022-08-21T10:43:50.968Z,1.07
2022-08-21T10:45:03.604Z,2.13
2022-08-21T10:46:14.819Z,1.30
2022-08-21T10:47:21.401Z,0.97
2022-08-21T10:48:31.316Z,1.17
2022-08-21T10:49:42.266Z,1.30
2022-08-21T10:50:49.892Z,1.73
2022-08-21T10:51:58.930Z,1.30
2022-08-21T10:53:16.944Z,1.37
2022-08-21T10:54:28.851Z,1.93
2022-08-21T10:55:36.214Z,2.27
2022-08-21T10:56:44.081Z,1.53
2022-08-21T10:57:49.581Z,3.97
2022-08-21T10:59:04.410Z,1.30
2022-08-21T11:00:10.833Z,1.57
2022-08-21T11:01:21.199Z,1.30
2022-08-21T11:02:29.212Z,1.40
2022-08-21T11:03:36.791Z,1.40
2022-08-21T11:04:50.225Z,1.17
2022-08-21T11:05:56.984Z,1.30
2022-08-21T11:07:04.586Z,2.00
2022-08-21T11:08:15.514Z,1.57
2022-08-21T11:09:22.299Z,1.40
2022-08-21T11:10:29.354Z,1.20
2022-08-21T11:11:37.049Z,1.33
2022-08-21T11:12:44.136Z,1.13
2022-08-21T11:13:51.130Z,1.80
2022-08-21T11:14:59.476Z,1.27
2022-08-21T11:16:07.311Z,1.87
2022-08-21T11:17:17.231Z,1.47
2022-08-21T11:18:26.800Z,1.37
2022-08-21T11:19:34.034Z,3.13
2022-08-21T11:20:44.205Z,1.50
2022-08-21T11:21:53.755Z,1.27
2022-08-21T11:23:03.676Z,1.40
2022-08-21T11:24:28.951Z,3.23
2022-08-21T11:25:37.173Z,1.83
2022-08-21T11:26:44.566Z,1.73
2022-08-21T11:27:52.630Z,2.20
2022-08-21T11:29:01.195Z,1.03
2022-08-21T11:30:06.035Z,1.90
2022-08-21T11:31:18.213Z,1.77
2022-08-21T11:32:58.366Z,2.40
2022-08-21T11:34:11.813Z,3.10
2022-08-21T11:35:28.769Z,1.30
2022-08-21T11:36:38.084Z,1.83
2022-08-21T11:37:57.669Z,1.87
2022-08-21T11:39:09.140Z,1.60
2022-08-21T11:40:23.735Z,2.67
2022-08-21T11:41:31.909Z,1.40
2022-08-21T11:42:42.530Z,2.03
2022-08-21T11:43:52.199Z,9.70
2022-08-21T11:45:13.798Z,9.90
2022-08-21T11:46:31.449Z,4.60
2022-08-21T11:47:55.011Z,1.40
2022-08-21T11:49:08.390Z,1.40
2022-08-21T11:50:34.168Z,2.20
2022-08-21T11:51:44.258Z,2.83
2022-08-21T11:52:52.679Z,2.40
2022-08-21T11:54:07.839Z,3.53
2022-08-21T11:55:16.911Z,8.00
2022-08-21T11:56:28.568Z,3.57
2022-08-21T11:57:35.483Z,2.30
2022-08-21T11:58:41.638Z,8.30
2022-08-21T11:59:51.561Z,12.90
2022-08-21T12:00:59.178Z,3.53
2022-08-21T12:02:03.682Z,4.67
2022-08-21T12:03:16.401Z,4.97
2022-08-21T12:04:27.652Z,3.23
2022-08-21T12:05:37.399Z,1.87
2022-08-21T12:06:42.306Z,1.30
2022-08-21T12:07:47.410Z,1.43
2022-08-21T12:09:00.126Z,2.00
2022-08-21T12:10:07.266Z,2.27
2022-08-21T12:11:12.160Z,1.60
2022-08-21T12:12:27.159Z,1.83
2022-08-21T12:13:40.046Z,2.13
2022-08-21T12:14:46.969Z,3.33
2022-08-21T12:15:51.640Z,3.90
2022-08-21T12:17:06.353Z,1.50
2022-08-21T12:18:26.181Z,1.83
2022-08-21T12:19:33.968Z,5.60
2022-08-21T12:20:50.784Z,2.00
2022-08-21T12:21:57.489Z,3.73
2022-08-21T12:23:07.353Z,2.77
2022-08-21T12:24:22.735Z,1.70
2022-08-21T12:25:38.771Z,1.93
2022-08-21T12:26:52.982Z,3.17
2022-08-21T12:28:08.879Z,2.63
2022-08-21T12:29:19.210Z,3.60
2022-08-21T12:30:34.529Z,2.30
2022-08-21T12:31:38.661Z,2.20
2022-08-21T12:32:46.593Z,2.47
2022-08-21T12:34:04.694Z,2.00
2022-08-21T12:35:15.548Z,2.27
2022-08-21T12:36:34.811Z,4.40
2022-08-21T12:37:44.680Z,2.30
2022-08-21T12:38:50.787Z,2.73
2022-08-21T12:40:01.753Z,1.77
2022-08-21T12:41:08.301Z,2.00
2022-08-21T12:42:18.908Z,1.40
2022-08-21T12:43:24.367Z,1.40
2022-08-21T12:44:35.983Z,1.40
2022-08-21T12:45:43.501Z,1.97
2022-08-21T12:46:51.045Z,2.03
2022-08-21T12:47:59.972Z,2.30
2022-08-21T12:49:10.134Z,1.50
2022-08-21T12:50:17.958Z,2.73
2022-08-21T12:51:26.189Z,1.87
2022-08-21T12:52:38.989Z,1.97
2022-08-21T12:53:46.143Z,2.33
2022-08-21T12:54:50.591Z,2.93
2022-08-21T12:55:53.847Z,2.50
2022-08-21T12:57:02.569Z,1.67
2022-08-21T12:58:06.868Z,1.77
2022-08-21T12:59:14.892Z,1.30
2022-08-21T13:00:23.651Z,1.30
2022-08-21T13:01:31.966Z,2.20
2022-08-21T13:02:38.349Z,1.30
2022-08-21T13:03:43.632Z,1.30
2022-08-21T13:04:48.999Z,1.30
2022-08-21T13:05:54.957Z,1.20
2022-08-21T13:07:00.628Z,3.37
2022-08-21T13:08:07.116Z,1.30
2022-08-21T13:09:16.139Z,3.90
2022-08-21T13:10:23.778Z,2.10
2022-08-21T13:11:32.612Z,2.53
2022-08-21T13:12:38.280Z,1.20
2022-08-21T13:13:46.856Z,2.60
2022-08-21T13:14:54.472Z,1.40
2022-08-21T13:16:01.871Z,1.20
2022-08-21T13:17:08.079Z,4.60
2022-08-21T13:18:23.691Z,1.20
2022-08-21T13:19:27.734Z,1.20
2022-08-21T13:20:35.562Z,2.67
2022-08-21T13:21:41.921Z,1.20
2022-08-21T13:22:46.809Z,1.10
2022-08-21T13:23:49.810Z,1.50
2022-08-21T13:24:55.049Z,1.40
2022-08-21T13:25:58.890Z,1.30
2022-08-21T13:27:03.492Z,2.90
2022-08-21T13:28:10.145Z,1.47
2022-08-21T13:29:24.275Z,1.60
2022-08-21T13:30:28.642Z,1.70
2022-08-21T13:31:32.775Z,2.23
2022-08-21T13:32:39.491Z,1.57
2022-08-21T13:33:43.102Z,1.40
2022-08-21T13:34:47.252Z,1.70
2022-08-21T13:36:06.349Z,2.50
2022-08-21T13:37:10.380Z,1.30
2022-08-21T13:38:14.526Z,2.00
2022-08-21T13:39:19.251Z,1.83
2022-08-21T13:40:28.439Z,1.77
2022-08-21T13:41:34.301Z,3.40
2022-08-21T13:42:38.478Z,4.43
2022-08-21T13:43:46.810Z,2.10
2022-08-21T13:44:51.171Z,1.80
2022-08-21T13:45:56.113Z,3.10
2022-08-21T13:47:02.059Z,1.77
2022-08-21T13:48:06.946Z,1.93
2022-08-21T13:49:12.279Z,1.83
2022-08-21T13:50:16.986Z,2.00
2022-08-21T13:51:22.909Z,1.93
2022-08-21T13:52:27.425Z,1.70
2022-08-21T13:53:33.721Z,3.03
2022-08-21T13:54:39.432Z,1.53
2022-08-21T13:55:46.045Z,2.03
2022-08-21T13:56:49.240Z,1.63
2022-08-21T13:58:02.144Z,3.23
2022-08-21T13:59:05.319Z,1.37
2022-08-21T14:00:15.959Z,1.50
2022-08-21T14:01:22.024Z,2.00
2022-08-21T14:02:26.827Z,1.53
2022-08-21T14:03:34.838Z,1.77
2022-08-21T14:04:44.384Z,1.67
2022-08-21T14:05:57.391Z,3.10
2022-08-21T14:07:16.824Z,1.90
2022-08-21T14:08:30.157Z,1.50
2022-08-21T14:09:37.268Z,2.70
2022-08-21T14:10:44.209Z,1.70
2022-08-21T14:11:48.370Z,1.80
2022-08-21T14:12:53.580Z,1.70
2022-08-21T14:14:01.475Z,1.50
2022-08-21T14:15:06.471Z,2.23
2022-08-21T14:16:17.817Z,1.80
2022-08-21T14:17:33.437Z,1.50
2022-08-21T14:18:46.744Z,2.10
2022-08-21T14:19:49.760Z,1.73
2022-08-21T14:20:53.945Z,1.60
2022-08-21T14:21:57.360Z,1.40
2022-08-21T14:23:03.153Z,1.50
2022-08-21T14:24:10.341Z,2.50
2022-08-21T14:25:31.729Z,1.93
2022-08-21T14:26:37.292Z,1.70
2022-08-21T14:27:45.842Z,1.83
2022-08-21T14:28:48.850Z,1.67
2022-08-21T14:29:53.029Z,1.80
2022-08-21T14:30:57.221Z,2.83
2022-08-21T14:32:02.977Z,2.60
2022-08-21T14:33:12.096Z,4.30
2022-08-21T14:34:19.445Z,2.60
2022-08-21T14:35:23.754Z,2.83
2022-08-21T14:36:28.850Z,2.93
2022-08-21T14:37:33.118Z,2.90
2022-08-21T14:38:39.253Z,3.63
2022-08-21T14:39:45.266Z,3.20
2022-08-21T14:40:50.794Z,3.00
2022-08-21T14:41:55.511Z,3.27
2022-08-21T14:42:59.185Z,3.20